createdAt,value
2022-12-24T00:00:40.193Z,14.50
2022-12-24T00:05:42.348Z,14.50
2022-12-24T00:10:45.192Z,14.50
2022-12-24T00:15:47.488Z,14.40
2022-12-24T00:20:50.117Z,14.40
2022-12-24T00:25:52.121Z,14.40
2022-12-24T00:30:54.257Z,14.30
2022-12-24T00:35:56.327Z,14.20
2022-12-24T00:41:03.549Z,14.20
2022-12-24T00:46:05.742Z,14.20
2022-12-24T00:51:07.945Z,14.00
2022-12-24T00:56:10.466Z,14.00
2022-12-24T01:06:18.597Z,13.90
2022-12-24T01:11:20.791Z,13.90
2022-12-24T01:16:22.962Z,13.90
2022-12-24T01:21:25.196Z,13.80
2022-12-24T01:26:27.260Z,13.80
2022-12-24T01:31:29.479Z,13.70
2022-12-24T01:36:31.655Z,13.70
2022-12-24T01:41:52.206Z,13.60
2022-12-24T01:47:17.596Z,13.60
2022-12-24T01:52:30.980Z,13.60
2022-12-24T01:57:41.612Z,13.60
2022-12-24T02:02:47.943Z,13.60
2022-12-24T02:07:50.675Z,13.60
2022-12-24T02:12:53.398Z,13.60
2022-12-24T02:17:55.417Z,13.60
2022-12-24T02:23:16.290Z,13.60
2022-12-24T02:28:55.610Z,13.50
2022-12-24T02:34:15.020Z,13.50
2022-12-24T02:39:27.187Z,13.60
2022-12-24T02:44:31.836Z,13.50
2022-12-24T02:49:35.668Z,13.50
2022-12-24T02:54:37.887Z,13.40
2022-12-24T03:00:15.696Z,13.60
2022-12-24T03:05:28.746Z,13.30
2022-12-24T03:10:55.526Z,13.30
2022-12-24T03:15:57.700Z,13.30
2022-12-24T03:21:07.673Z,13.30
2022-12-24T03:26:14.445Z,13.30
2022-12-24T03:31:18.775Z,13.30
2022-12-24T03:41:23.559Z,13.30
2022-12-24T03:46:25.675Z,13.30
2022-12-24T03:51:28.657Z,13.40
2022-12-24T03:56:30.735Z,13.40
2022-12-24T04:01:34.679Z,13.50
2022-12-24T04:06:36.896Z,13.60
2022-12-24T04:11:39.933Z,13.60
2022-12-24T04:16:42.044Z,13.80
2022-12-24T04:21:44.226Z,13.60
2022-12-24T04:26:46.316Z,13.60
2022-12-24T04:31:48.446Z,13.70
2022-12-24T04:36:50.517Z,13.80
2022-12-24T04:41:52.610Z,13.70
2022-12-24T04:46:54.647Z,13.70
2022-12-24T04:51:56.783Z,13.60
2022-12-24T04:56:58.948Z,13.60
2022-12-24T05:02:01.189Z,13.60
2022-12-24T05:07:04.548Z,13.70
2022-12-24T05:12:06.873Z,13.70
2022-12-24T05:17:08.994Z,13.70
2022-12-24T05:22:29.813Z,13.70
2022-12-24T05:27:32.119Z,13.70
2022-12-24T05:32:34.320Z,13.60
2022-12-24T05:37:36.429Z,13.60
2022-12-24T05:42:38.585Z,13.70
2022-12-24T05:47:43.432Z,13.60
2022-12-24T05:52:45.945Z,13.60
2022-12-24T05:57:48.032Z,13.60
2022-12-24T06:02:50.279Z,13.60
2022-12-24T06:07:52.457Z,13.60
2022-12-24T06:12:55.728Z,13.50
2022-12-24T06:17:57.842Z,13.50
2022-12-24T06:22:59.924Z,13.50
2022-12-24T06:28:02.036Z,13.40
2022-12-24T06:33:04.136Z,13.40
2022-12-24T06:38:06.352Z,13.40
2022-12-24T06:43:09.080Z,13.30
2022-12-24T06:48:11.105Z,13.30
2022-12-24T06:58:15.717Z,13.30
2022-12-24T07:03:17.987Z,13.30
2022-12-24T07:08:20.176Z,13.30
2022-12-24T07:13:22.189Z,13.30
2022-12-24T07:18:24.211Z,13.50
2022-12-24T07:23:26.845Z,13.30
2022-12-24T07:28:29.496Z,13.30
2022-12-24T07:33:31.717Z,13.30
2022-12-24T07:38:35.214Z,13.30
2022-12-24T07:43:37.364Z,13.30
2022-12-24T07:48:39.471Z,13.30
2022-12-24T07:53:47.615Z,13.30
2022-12-24T07:58:52.994Z,13.40
2022-12-24T08:03:55.291Z,13.60
2022-12-24T08:08:57.641Z,13.50
2022-12-24T08:13:59.765Z,13.50
2022-12-24T08:19:01.890Z,13.50
2022-12-24T08:24:04.361Z,13.60
2022-12-24T08:29:06.835Z,13.70
2022-12-24T08:34:09.028Z,13.60
2022-12-24T08:39:11.178Z,13.70
2022-12-24T08:44:13.308Z,13.80
2022-12-24T08:49:15.951Z,13.80
2022-12-24T08:54:18.730Z,13.80
2022-12-24T08:59:20.764Z,13.90
2022-12-24T09:04:22.871Z,13.90
2022-12-24T09:09:25.019Z,13.90
2022-12-24T09:14:27.110Z,14.00
2022-12-24T09:19:29.286Z,14.10
2022-12-24T09:24:32.182Z,14.20
2022-12-24T09:29:35.408Z,14.30
2022-12-24T09:34:37.873Z,14.40
2022-12-24T09:39:40.128Z,14.50
2022-12-24T09:45:04.081Z,14.60
2022-12-24T09:50:23.851Z,14.70
2022-12-24T09:55:32.052Z,14.80
2022-12-24T10:00:37.587Z,15.00
2022-12-24T10:06:04.385Z,15.10
2022-12-24T10:11:12.893Z,15.10
2022-12-24T10:16:33.131Z,15.20
2022-12-24T10:22:05.455Z,15.30
2022-12-24T10:27:14.956Z,15.30
2022-12-24T10:32:29.975Z,15.30
2022-12-24T10:37:32.772Z,15.40
2022-12-24T10:42:50.601Z,15.40
2022-12-24T10:47:59.110Z,15.50
2022-12-24T10:53:21.426Z,15.50
2022-12-24T10:58:23.610Z,15.60
2022-12-24T11:03:34.624Z,15.60
2022-12-24T11:08:40.098Z,15.70
2022-12-24T11:13:52.736Z,15.80
2022-12-24T11:18:57.838Z,15.90
2022-12-24T11:24:13.484Z,16.00
2022-12-24T11:29:21.497Z,16.10
2022-12-24T11:34:32.712Z,16.10
2022-12-24T11:39:41.399Z,16.10
2022-12-24T11:44:50.602Z,16.30
2022-12-24T11:49:52.697Z,16.50
2022-12-24T11:54:54.981Z,16.80
2022-12-24T11:59:57.373Z,16.80
2022-12-24T12:05:19.486Z,17.20
2022-12-24T12:10:25.776Z,17.10
2022-12-24T12:15:35.126Z,17.10
2022-12-24T12:20:45.112Z,17.20
2022-12-24T12:26:12.896Z,17.40
2022-12-24T12:31:27.802Z,17.50
2022-12-24T12:36:40.229Z,17.50
2022-12-24T12:41:51.363Z,17.70
2022-12-24T12:47:11.323Z,17.60
2022-12-24T12:52:27.130Z,17.60
2022-12-24T12:57:36.772Z,17.40
2022-12-24T13:03:07.178Z,17.20
2022-12-24T13:08:37.025Z,17.10
2022-12-24T13:13:39.149Z,17.00
2022-12-24T13:18:44.525Z,16.90
2022-12-24T13:23:47.328Z,16.70
2022-12-24T13:28:49.426Z,16.60
2022-12-24T13:33:54.135Z,16.60
2022-12-24T13:38:57.682Z,16.50
2022-12-24T13:44:14.746Z,16.40
2022-12-24T13:49:21.099Z,16.20
2022-12-24T13:54:28.346Z,16.10
2022-12-24T13:59:38.666Z,16.00
2022-12-24T14:04:42.288Z,16.00
2022-12-24T14:09:50.468Z,15.90
2022-12-24T14:14:52.631Z,15.80
2022-12-24T14:19:58.211Z,15.80
2022-12-24T14:25:18.395Z,15.80
2022-12-24T14:30:25.541Z,15.80
2022-12-24T14:35:37.659Z,15.70
2022-12-24T14:40:51.954Z,15.70
2022-12-24T14:46:26.268Z,15.60
2022-12-24T14:51:45.979Z,15.60
2022-12-24T14:57:06.305Z,15.60
2022-12-24T15:02:40.459Z,15.50
2022-12-24T15:07:48.839Z,15.40
2022-12-24T15:12:51.772Z,15.30
2022-12-24T15:17:55.925Z,15.20
2022-12-24T15:22:59.012Z,15.40
2022-12-24T15:28:01.317Z,15.10
2022-12-24T15:38:18.838Z,15.00
2022-12-24T15:43:21.406Z,14.90
2022-12-24T15:48:26.782Z,14.80
2022-12-24T15:53:41.386Z,14.80
2022-12-24T15:58:45.372Z,14.70
2022-12-24T16:03:50.539Z,14.60
2022-12-24T16:08:53.215Z,14.70
2022-12-24T16:14:10.569Z,14.50
2022-12-24T16:19:22.689Z,14.40
2022-12-24T16:24:28.141Z,14.40
2022-12-24T16:29:30.387Z,14.30
2022-12-24T16:34:33.193Z,14.20
2022-12-24T16:39:35.234Z,14.20
2022-12-24T16:49:40.183Z,14.00
2022-12-24T16:54:42.294Z,13.90
2022-12-24T16:59:44.510Z,13.90
2022-12-24T17:09:49.685Z,13.80
2022-12-24T17:14:51.832Z,13.70
2022-12-24T17:19:54.933Z,13.70
2022-12-24T17:24:57.127Z,13.70
2022-12-24T17:29:59.802Z,13.60
2022-12-24T17:35:02.401Z,13.60
2022-12-24T17:40:05.322Z,13.50
2022-12-24T17:45:07.853Z,13.40
2022-12-24T17:50:10.356Z,13.40
2022-12-24T17:55:12.579Z,13.20
2022-12-24T18:00:15.552Z,13.20
2022-12-24T18:05:18.566Z,13.20
2022-12-24T18:10:21.142Z,13.20
2022-12-24T18:15:23.503Z,13.10
2022-12-24T18:20:26.019Z,13.10
2022-12-24T18:25:28.216Z,13.10
2022-12-24T18:30:30.331Z,13.20
2022-12-24T18:35:32.482Z,13.20
2022-12-24T18:40:37.173Z,13.20
2022-12-24T18:45:44.467Z,13.20
2022-12-24T18:50:56.093Z,14.40
2022-12-24T18:56:06.742Z,13.20
2022-12-24T19:01:27.063Z,13.20
2022-12-24T19:06:29.706Z,13.10
2022-12-24T19:11:33.797Z,13.20
2022-12-24T19:16:37.248Z,13.10
2022-12-24T19:21:39.449Z,13.10
2022-12-24T19:26:41.583Z,13.10
2022-12-24T19:31:47.118Z,13.10
2022-12-24T19:36:49.400Z,13.10
2022-12-24T19:41:52.516Z,13.10
2022-12-24T19:46:54.740Z,13.10
2022-12-24T19:51:56.884Z,13.10
2022-12-24T19:56:58.984Z,13.10
2022-12-24T20:02:01.304Z,13.10
2022-12-24T20:07:03.687Z,13.10
2022-12-24T20:12:06.161Z,13.10
2022-12-24T20:17:08.825Z,13.20
2022-12-24T20:22:11.035Z,13.10
2022-12-24T20:27:13.122Z,13.20
2022-12-24T20:32:15.331Z,13.20
2022-12-24T20:37:17.530Z,13.20
2022-12-24T20:42:19.721Z,13.20
2022-12-24T20:47:21.828Z,13.20
2022-12-24T20:57:31.429Z,13.20
2022-12-24T21:07:42.912Z,13.20
2022-12-24T21:12:56.832Z,13.20
2022-12-24T21:18:00.042Z,13.20
2022-12-24T21:23:02.352Z,13.40
2022-12-24T21:28:04.750Z,13.20
2022-12-24T21:33:06.853Z,13.20
2022-12-24T21:38:08.984Z,13.10
2022-12-24T21:43:11.096Z,13.20
2022-12-24T21:48:31.749Z,13.20
2022-12-24T21:53:52.744Z,13.20
2022-12-24T21:58:54.886Z,13.20
2022-12-24T22:03:56.963Z,13.10
2022-12-24T22:09:20.037Z,13.10
2022-12-24T22:14:22.253Z,13.10
2022-12-24T22:29:29.554Z,13.00
2022-12-24T22:34:32.829Z,13.00
2022-12-24T22:39:35.007Z,12.90
2022-12-24T22:44:37.182Z,12.90
2022-12-24T22:49:39.307Z,12.90
2022-12-24T22:54:41.412Z,12.90
2022-12-24T22:59:43.980Z,12.90
2022-12-24T23:09:48.702Z,12.80
2022-12-24T23:14:56.853Z,12.80
2022-12-24T23:20:00.582Z,12.80
2022-12-24T23:25:02.678Z,12.80
2022-12-24T23:30:05.462Z,12.80
2022-12-24T23:35:07.968Z,12.80
2022-12-24T23:40:11.014Z,12.80
2022-12-24T23:45:13.266Z,12.80
2022-12-24T23:50:15.418Z,12.80
2022-12-24T23:55:17.834Z,12.80
